NCE weather

Nice-Côte d'Azur Airport
Nice, Provence-Alpes-Côte-d'Azur, France

Public forecast

Using degrees Celsius for public forecast. Weather courtesy of forecast.io.

Current aviation weather report (METAR) for Nice-Côte d'Azur Airport

Retrieved 2019/11/21 20:30 UTC (9 minutes ago):

LFMN 212030Z 34010KT 9999 BKN035 11/09 Q1010 TEMPO 4000 SHRA SCT020TCU

Aviation forecast (TAF) for Nice-Côte d'Azur Airport

Retrieved 2019/11/21 21:45 UTC (0 seconds ago):

TAF LFMN 212000Z 2121/2303 36010KT 9999 BKN035 BKN110 TEMPO 2121/2303 4000 SHRA SCT020TCU BKN030 PROB30 TEMPO 2121/2205 2000 TSRA SCT015CB BKN020 BECMG 2210/2212 07012KT PROB40 TEMPO 2215/2303 2000 TSRA SCT015CB BKN020 BECMG 2216/2218 06020G30KT BECMG 2221/2223 09025G35KT